x

Isle Of Shoals, Nh (iosn3) Weather Station

1:00 - Wed 1st Oct 2014 All times are EDT. -4 hours from GMT.

  • Wind
    24mph, 26mph gusts
  • Ar Temp 56°f
  • Sea Pressure 1018.3mb
  • Isle Of Shoals, Nh
  • Isle Of Shoals, Nh

More Historic Weather Station data

Upgrade to MSW Pro to gain access to the past 30 days of data for over 8000 Wavebouys and Weather Stations around the globe.

Join Pro

Comparision Forecast

View Surf forecast
   
Qua 10/01 1:00 24 26 mph 1018.3mb 56f
12:00 23 25 mph 1018.5mb 56f
11:00 29 33 mph 1018.1mb 56f
10:00 26 31 mph 1018.2mb 56f
9:00 26 29 mph 1017.9mb 56f
8:00 28 30 mph 1017.5mb 57f
7:00 23 26 mph 1017.2mb 57f
6:00 21 23 mph 1016.7mb 57f
5:00 23 25 mph 1016.3mb 57f
4:00 23 26 mph 1016mb 58f
3:00 22 24 mph 1016.3mb 58f
2:00 18 21 mph 1017mb 58f
1:00 20 21 mph 1016.9mb 57f
12:00 20 21 mph 1016.8mb 57f
Ter 09/30 11:00 20 22 mph 1016.4mb 57f
10:00 14 16 mph 1016.7mb 57f
9:00 10 11 mph 1017mb 57f
8:00 14 15 mph 1016.5mb 57f
7:00 11 14 mph 1016.2mb 57f
6:00 16 17 mph 1015.9mb 57f
5:00 14 16 mph 1015.8mb 56f
4:00 15 17 mph 1015.9mb 56f
3:00 13 15 mph 1016.2mb 55f
2:00 14 15 mph 1016.5mb 55f
1:00 16 18 mph 1016.5mb 55f
12:00 18 20 mph 1016.5mb 55f
11:00 18 21 mph 1016.7mb 54f
10:00 16 18 mph 1017mb 55f
9:00 18 21 mph 1017.1mb 55f
8:00 22 25 mph 1016.8mb 55f
7:00 20 23 mph 1016.5mb 55f
6:00 21 23 mph 1015.6mb 55f
5:00 23 26 mph 1015.6mb 55f
4:00 23 25 mph 1015.4mb 55f
3:00 25 28 mph 1015.6mb 55f
2:00 25 29 mph 1015.6mb 55f
1:00 25 30 mph 1015.4mb 55f
12:00 25 28 mph 1015.8mb 55f
Seg 09/29 11:00 24 29 mph 1015.9mb 55f
10:00 29 32 mph 1015.8mb 55f
9:00 30 34 mph 1015.8mb 56f
8:00 28 31 mph 1015.9mb 56f
7:00 29 31 mph 1015.7mb 56f
6:00 28 30 mph 1015.5mb 57f
5:00 26 29 mph 1015.1mb 57f
4:00 28 30 mph 1014.6mb 58f
3:00 28 30 mph 1014.7mb 58f
2:00 23 26 mph 1014.4mb 63f
1:00 15 17 mph 1014.7mb 64f
12:00 17 20 mph 1014.4mb 64f
11:00 14 16 mph 1014.4mb 65f
10:00 9
mph
1014.8mb 65f
9:00 6
mph
1014.6mb 64f
8:00 9 10 mph 1014.2mb 64f
7:00 8
mph
1013.9mb 64f
6:00 8
mph
1013.5mb 64f
5:00 2 3 mph 1013.6mb 64f
4:00 2
mph
1013.4mb 65f
3:00 8 9 mph 1013.2mb 65f
2:00 10 11 mph 1013.5mb 67f
1:00 10
mph
1013.5mb 68f
12:00 11
mph
1013.6mb 70f
Dom 09/28 11:00 13 14 mph 1014mb 72f
10:00 15 16 mph 1014mb 73f
9:00 14
mph
1014.3mb 74f
8:00 17 18 mph 1014.5mb 76f
7:00 17
mph
1014.6mb 75f
6:00 18 20 mph 1014.8mb 76f
5:00 20
mph
1014.9mb 74f
4:00 21
mph
1015.3mb 70f
3:00 18 20 mph 1015.8mb 69f
2:00 17
mph
1016.5mb 67f
1:00 14 15 mph 1017.2mb 68f
12:00 11 14 mph 1018.1mb 69f
11:00 8 9 mph 1018.8mb 67f
10:00 9 10 mph 1019.4mb 63f
9:00 9 10 mph 1020.1mb 61f
8:00 8 9 mph 1020.3mb 60f
7:00 7 8 mph 1020.1mb 61f
6:00 3
mph
1020mb 61f
5:00 7 8 mph 1019.8mb 63f
4:00 7
mph
1019.9mb 62f
3:00 10
mph
1020mb 64f
2:00 9
mph
1020.2mb 66f
1:00 14 15 mph 1020.3mb 65f
12:00 14
mph
1020.2mb 66f
Sáb 09/27 11:00 11 13 mph 1020.4mb 65f
10:00 11 13 mph 1020.4mb 66f
9:00 15
mph
1020.3mb 67f
8:00 17 18 mph 1019.9mb 70f
7:00 11
mph
1019.5mb 75f